Flight Track Log - Related Links

Times and Time Zones

All times are in EDT time to prevent confusion due to time zone crossing. See the AAY843 flight status page for this flight to view local times or setup timezone preferences in your user account.

Time Position Orientation Groundspeed Altitude Reporting Facility
EDT Latitude Longitude Course Direction KTS MPH feet Rate Location/Type
Fri 07:34:36 PM 43.1075 -76.1333 243° Southwest 136 157 1,700  Level Boston Center
Fri 07:35:31 PM 43.0919 -76.1750 249° West 171 197 3,200 1,773 Climbing Boston Center
Fri 07:36:04 PM 43.0644 -76.2019 216° Southwest 183 211 4,300 2,776 Climbing Boston Center
Fri 07:36:38 PM 43.0314 -76.2289 211° Southwest 245 282 6,300 3,049 Climbing Boston Center
Fri 07:37:05 PM 43.0086 -76.2483 212° Southwest 225 259 7,400 2,467 Climbing Boston Center
Fri 07:38:08 PM 42.9519 -76.2958 212° Southwest 236 272 10,000 1,392 Climbing Boston Center
Fri 07:39:10 PM 42.8892 -76.3517 213° Southwest 262 302 10,300 1,475 Climbing Boston Center
Fri 07:40:10 PM 42.8206 -76.4092 212° Southwest 284 327 13,000 2,656 Climbing Boston Center
Fri 07:41:12 PM 42.7528 -76.4700 213° Southwest 288 331 15,700 1,918 Climbing Boston Center
Fri 07:42:12 PM 42.6783 -76.5328 212° Southwest 312 359 16,900 683 Climbing Boston Center
Fri 07:43:15 PM 42.5992 -76.5994 212° Southwest 331 381 17,100 97 Climbing Boston Center
Fri 07:44:16 PM 42.5028 -76.6825 212° Southwest 340 391 17,100 893 Level Boston Center
Fri 07:45:16 PM 42.4019 -76.7111 192° South 376 433 18,900 1,835 Climbing Boston Center
Fri 07:46:17 PM 42.2956 -76.7292 187° South 382 440 20,800 1,881 Climbing Boston Center
Fri 07:47:14 PM 42.1872 -76.7517 189° South 395 455 22,600 2,051 Climbing New York Center
Fri 07:48:14 PM 42.0803 -76.7672 186° South 395 455 24,800 1,800 Climbing New York Center
Fri 07:49:14 PM 41.9708 -76.7881 188° South 395 455 26,200 1,450 Climbing New York Center
Fri 07:50:14 PM 41.8597 -76.8058 187° South 395 455 27,700 1,450 Climbing New York Center
Fri 07:51:14 PM 41.7481 -76.8289 189° South 400 460 29,100 1,300 Climbing New York Center
Fri 07:52:14 PM 41.6347 -76.8464 187° South 411 473 30,300 1,350 Climbing New York Center
Fri 07:53:14 PM 41.5192 -76.8664 187° South 411 473 31,800 1,700 Climbing New York Center
Fri 07:54:14 PM 41.4222 -76.8853 188° South 411 473 33,700 1,550 Climbing New York Center
Fri 07:55:14 PM 41.3244 -76.9233 196° South 392 451 34,900 1,150 Climbing New York Center
Fri 07:56:14 PM 41.2308 -76.9619 197° South 371 427 36,000 550 Climbing New York Center
Fri 07:57:14 PM 41.1350 -77.0000 197° South 360 414 36,000  Level New York Center
Fri 07:58:14 PM 41.0394 -77.0353 196° South 360 414 36,000  Level New York Center
Fri 07:59:14 PM 40.9436 -77.0731 197° South 360 414 36,000  Level New York Center
Fri 08:00:14 PM 40.8478 -77.1108 197° South 360 414 36,000  Level New York Center
Fri 08:01:14 PM 40.7522 -77.1458 196° South 365 420 36,000  Level New York Center
Fri 08:02:14 PM 40.6564 -77.1836 197° South 365 420 36,000 100 Level New York Center
Fri 08:04:14 PM 40.4606 -77.2553 196° South 370 426 36,300 561 Climbing New York Center
Fri 08:05:48 PM 40.3033 -77.3186 197° South 348 400 38,000 658 Climbing Washington Center
Fri 08:06:49 PM 40.2092 -77.3517 195° South 348 400 38,000  Level Washington Center
Fri 08:07:49 PM 40.1150 -77.3872 196° South 348 400 38,000  Level Washington Center
Fri 08:08:50 PM 40.0228 -77.4203 195° South 348 400 38,000  Level Washington Center
Fri 08:09:48 PM 39.9264 -77.4583 197° South 348 400 38,000  Level Washington Center
Fri 08:10:49 PM 39.8319 -77.4936 196° South 353 406 38,000  Level Washington Center
Fri 08:11:48 PM 39.7378 -77.5289 196° South 353 406 38,000  Level Washington Center
Fri 08:12:48 PM 39.6414 -77.5642 196° South 364 419 38,000  Level Washington Center
Fri 08:13:49 PM 39.5447 -77.6019 197° South 364 419 38,000  Level Washington Center
Fri 08:14:50 PM 39.4483 -77.6342 194° South 364 419 38,000  Level Washington Center
Fri 08:15:50 PM 39.3519 -77.6717 197° South 364 419 38,000  Level Washington Center
Fri 08:16:48 PM 39.2533 -77.7092 196° South 364 419 38,000  Level Washington Center
Fri 08:17:49 PM 39.1569 -77.7436 195° South 364 419 38,000 49 Level Washington Center
Fri 08:18:50 PM 39.0542 -77.7781 195° South 364 419 38,100  Climbing Washington Center
Fri 08:19:50 PM 38.9681 -77.8128 197° South 364 419 38,000 -51 Descending Washington Center
Fri 08:20:48 PM 38.8589 -77.8497 195° South 364 419 38,000  Level Washington Center
Fri 08:21:48 PM 38.7686 -77.8842 197° South 369 425 38,000  Level Washington Center
Fri 08:22:49 PM 38.6719 -77.9211 197° South 369 425 38,000  Level Washington Center
Fri 08:23:50 PM 38.5733 -77.9550 195° South 364 419 38,000  Level Washington Center
Fri 08:24:49 PM 38.4767 -77.9892 195° South 364 419 38,000  Level Washington Center
Fri 08:25:50 PM 38.3781 -78.0231 195° South 364 419 38,000  Level Washington Center
Fri 08:26:50 PM 38.2814 -78.0597 197° South 364 419 38,000  Level Washington Center
Fri 08:27:48 PM 38.1828 -78.0933 195° South 364 419 38,000  Level Washington Center
Fri 08:28:48 PM 38.0839 -78.1297 196° South 364 419 38,000  Level Washington Center
Fri 08:29:49 PM 37.9767 -78.1656 195° South 364 419 38,000  Level Washington Center
Fri 08:30:50 PM 37.8864 -78.1939 194° South 364 419 38,000  Level Washington Center
Fri 08:31:48 PM 37.7836 -78.2219 192° South 369 425 38,000  Level Washington Center
Fri 08:32:50 PM 37.6828 -78.2525 193° South 375 432 38,000  Level Washington Center
Fri 08:33:48 PM 37.5694 -78.2906 195° South 381 438 38,000  Level Washington Center
Fri 08:34:50 PM 37.4686 -78.3183 192° South 381 438 38,000  Level Washington Center
Fri 08:35:50 PM 37.3658 -78.3486 193° South 376 433 38,000  Level Washington Center
Fri 08:36:50 PM 37.2686 -78.3972 202° Southwest 376 433 38,000  Level Washington Center
Fri 08:37:48 PM 37.1736 -78.4461 202° Southwest 376 433 38,000  Level Washington Center
Fri 08:38:49 PM 37.0869 -78.4869 201° Southwest 376 433 38,000  Level Washington Center
Fri 08:39:49 PM 36.9900 -78.5356 202° Southwest 376 433 38,000  Level Washington Center
Fri 08:40:49 PM 36.8947 -78.5864 203° Southwest 376 433 38,000  Level Washington Center
Fri 08:41:49 PM 36.7975 -78.6344 202° Southwest 381 438 38,000  Level Washington Center
Fri 08:42:50 PM 36.6919 -78.6847 201° Southwest 381 438 38,000  Level Washington Center
Fri 08:43:50 PM 36.6008 -78.7381 205° Southwest 376 433 38,000  Level Washington Center
Fri 08:44:48 PM 36.5058 -78.7858 202° Southwest 376 433 38,000  Level Washington Center
Fri 08:45:49 PM 36.4086 -78.8308 200° South 376 433 38,000  Level Washington Center
Fri 08:46:49 PM 36.3303 -78.8689 201° Southwest 376 433 38,000  Level Washington Center
Fri 08:47:50 PM 36.2142 -78.9233 201° Southwest 376 433 38,000  Level Washington Center
Fri 08:48:48 PM 36.1189 -78.9708 202° Southwest 376 433 38,000  Level Washington Center
Fri 08:49:49 PM 36.0236 -79.0206 203° Southwest 376 433 38,000  Level Washington Center
Fri 08:50:50 PM 35.9261 -79.0650 200° South 376 433 38,000  Level Washington Center
Fri 08:51:48 PM 35.8289 -79.1147 203° Southwest 381 438 38,000  Level Washington Center
Fri 08:52:49 PM 35.7336 -79.1617 202° Southwest 381 438 38,000  Level Washington Center
Fri 08:53:49 PM 35.6361 -79.2083 201° Southwest 381 438 38,000  Level Washington Center
Fri 08:54:50 PM 35.5431 -79.2525 201° Southwest 376 433 38,000  Level Washington Center
Fri 08:55:48 PM 35.4583 -79.2947 202° Southwest 370 426 38,000  Level Washington Center
Fri 08:56:50 PM 35.3503 -79.3456 201° Southwest 370 426 38,000  Level Washington Center
Fri 08:57:50 PM 35.2614 -79.3872 201° Southwest 379 436 38,000  Level Washington Center
Fri 08:58:48 PM 35.1639 -79.4308 200° South 379 436 38,000  Level Washington Center
Fri 09:01:10 PM 34.9206 -79.5481 202° Southwest 381 438 38,000  Level Jacksonville Center
Fri 09:02:10 PM 34.8258 -79.5922 201° Southwest 376 433 38,000  Level Jacksonville Center
Fri 09:03:10 PM 34.7292 -79.6417 203° Southwest 376 433 38,000  Level Jacksonville Center
Fri 09:04:10 PM 34.6431 -79.7028 210° Southwest 365 420 38,000  Level Jacksonville Center
Fri 09:05:10 PM 34.5569 -79.7664 211° Southwest 360 414 38,000  Level Jacksonville Center
Fri 09:06:10 PM 34.4856 -79.8219 213° Southwest 358 412 38,000  Level Jacksonville Center
Fri 09:07:10 PM 34.3992 -79.8803 209° Southwest 358 412 38,000 -50 Level Jacksonville Center
Fri 09:08:10 PM 34.3172 -79.9436 213° Southwest 358 412 37,900  Descending Jacksonville Center
Fri 09:09:10 PM 34.2292 -80.0094 212° Southwest 358 412 38,000 50 Climbing Jacksonville Center
Fri 09:10:10 PM 34.1428 -80.0700 210° Southwest 363 418 38,000  Level Jacksonville Center
Fri 09:11:10 PM 34.0544 -80.1331 211° Southwest 363 418 38,000  Level Jacksonville Center
Fri 09:12:10 PM 33.9683 -80.1933 210° Southwest 368 423 38,000  Level Jacksonville Center
Fri 09:13:10 PM 33.8797 -80.2561 210° Southwest 368 423 38,000  Level Jacksonville Center
Fri 09:14:10 PM 33.7914 -80.3186 210° Southwest 368 423 38,000  Level Jacksonville Center
Fri 09:15:10 PM 33.7050 -80.3811 211° Southwest 373 429 38,000  Level Jacksonville Center
Fri 09:16:10 PM 33.6164 -80.4433 210° Southwest 373 429 38,000  Level Jacksonville Center
Fri 09:17:10 PM 33.5300 -80.5081 212° Southwest 373 429 38,000  Level Jacksonville Center
Fri 09:18:10 PM 33.4414 -80.5703 210° Southwest 373 429 38,000  Level Jacksonville Center
Fri 09:19:10 PM 33.3528 -80.6322 210° Southwest 373 429 38,000  Level Jacksonville Center
Fri 09:20:10 PM 33.2642 -80.6967 211° Southwest 373 429 38,000  Level Jacksonville Center
Fri 09:21:10 PM 33.1733 -80.7558 209° Southwest 373 429 38,000  Level Jacksonville Center
Fri 09:22:10 PM 33.0722 -80.8253 210° Southwest 373 429 38,000  Level Jacksonville Center
Fri 09:23:10 PM 32.9836 -80.8867 210° Southwest 373 429 38,000  Level Jacksonville Center
Fri 09:24:10 PM 32.8947 -80.9506 211° Southwest 373 429 38,000  Level Jacksonville Center
Fri 09:25:10 PM 32.8061 -81.0117 210° Southwest 373 429 38,000  Level Jacksonville Center
Fri 09:26:10 PM 32.7150 -81.0728 209° Southwest 373 429 38,000  Level Jacksonville Center
Fri 09:27:11 PM 32.6261 -81.1339 210° Southwest 373 429 38,000  Level Jacksonville Center
Fri 09:28:10 PM 32.5475 -81.1897 211° Southwest 373 429 38,000  Level Jacksonville Center
Fri 09:29:10 PM 32.4586 -81.2528 211° Southwest 373 429 38,000  Level Jacksonville Center
Fri 09:30:10 PM 32.3531 -81.3186 208° Southwest 379 436 38,000  Level Jacksonville Center
Fri 09:31:10 PM 32.2683 -81.3839 213° Southwest 369 425 38,000  Level Jacksonville Center
Fri 09:32:10 PM 32.1833 -81.4394 209° Southwest 382 440 38,000  Level Jacksonville Center
Fri 09:33:10 PM 32.0817 -81.5072 209° Southwest 375 432 38,000  Level Jacksonville Center
Fri 09:34:10 PM 31.9989 -81.5622 209° Southwest 375 432 38,000  Level Jacksonville Center
Fri 09:35:10 PM 31.8928 -81.6203 205° Southwest 375 432 38,000  Level Jacksonville Center
Fri 09:36:10 PM 31.7867 -81.6533 195° South 398 458 38,000  Level Jacksonville Center
Fri 09:37:10 PM 31.6911 -81.6839 195° South 398 458 38,000  Level Jacksonville Center
Fri 09:38:10 PM 31.5744 -81.7244 196° South 398 458 38,000  Level Jacksonville Center
Fri 09:39:10 PM 31.4786 -81.7550 195° South 398 458 38,000  Level Jacksonville Center
Fri 09:40:10 PM 31.3600 -81.7928 195° South 398 458 38,000  Level Jacksonville Center
Fri 09:41:11 PM 31.2517 -81.8306 197° South 398 458 38,000  Level Jacksonville Center
Fri 09:42:10 PM 31.1436 -81.8658 196° South 398 458 38,000  Level Jacksonville Center
Fri 09:43:10 PM 31.0353 -81.9008 195° South 398 458 38,000  Level Jacksonville Center
Fri 09:44:10 PM 30.9269 -81.9336 195° South 398 458 38,000  Level Jacksonville Center
Fri 09:45:10 PM 30.8186 -81.9686 196° South 398 458 38,000  Level Jacksonville Center
Fri 09:46:10 PM 30.7081 -82.0058 196° South 403 464 38,000  Level Jacksonville Center
Fri 09:47:10 PM 30.6103 -82.0381 196° South 403 464 38,000  Level Jacksonville Center
Fri 09:48:10 PM 30.4936 -82.0681 192° South 398 458 38,000 -50 Level Jacksonville Center
Fri 09:49:10 PM 30.3853 -82.1028 195° South 398 458 37,900  Descending Jacksonville Center
Fri 09:50:10 PM 30.2767 -82.1372 195° South 403 464 38,000 -400 Climbing Jacksonville Center
Fri 09:51:10 PM 30.1706 -82.1717 196° South 396 456 37,100 -950 Descending Jacksonville Center
Fri 09:52:10 PM 30.0642 -82.2061 196° South 395 455 36,100 -1,100 Descending Jacksonville Center
Fri 09:53:10 PM 29.9642 -82.2406 197° South 400 460 34,900 -1,700 Descending Jacksonville Center
Fri 09:54:10 PM 29.8578 -82.2747 196° South 400 460 32,700 -2,400 Descending Jacksonville Center
Fri 09:55:10 PM 29.7369 -82.3067 193° South 400 460 30,100 -2,350 Descending Jacksonville Center
Fri 09:56:10 PM 29.6306 -82.3431 197° South 400 460 28,000 -2,050 Descending Jacksonville Center
Fri 09:57:10 PM 29.5200 -82.3483 182° South 395 455 26,000 -2,083 Descending Jacksonville Center
Fri 09:58:11 PM 29.4031 -82.3372 175° South 401 461 23,800 -2,200 Descending Jacksonville Center
Fri 09:59:10 PM 29.2883 -82.3236 174° South 416 479 21,600 -1,966 Descending Jacksonville Center
Fri 10:00:10 PM 29.1881 -82.3097 173° South 416 479 19,900 -1,750 Descending Jacksonville Center
Fri 10:01:10 PM 29.0814 -82.2986 175° South 405 466 18,100 -1,700 Descending Jacksonville Center
Fri 10:02:10 PM 28.9811 -82.2850 173° South 392 451 16,500 -1,500 Descending Jacksonville Center
Fri 10:03:10 PM 28.8914 -82.2758 175° South 358 412 15,100 -1,265 Descending Jacksonville Center
Fri 10:04:56 PM 28.7333 -82.2500 172° South 302 348 13,000 -976 Descending Tampa TRACON
Fri 10:05:56 PM 28.6500 -82.2500 180° South 290 334 12,400 -789 Descending Tampa TRACON
Fri 10:06:50 PM 28.6000 -82.3000 221° Southwest 248 285 11,500 -1,000 Descending Tampa TRACON
Fri 10:08:20 PM 28.5167 -82.3833 221° Southwest 261 300 10,000 -709 Descending Tampa TRACON
Fri 10:08:57 PM 28.5000 -82.4167 240° Southwest 268 308 10,000  Level Tampa TRACON
Fri 10:09:57 PM 28.4333 -82.4833 221° Southwest 270 311 10,000 -900 Level Tampa TRACON
Fri 10:10:57 PM 28.3833 -82.5333 221° Southwest 264 304 8,200 -1,650 Descending Tampa TRACON
Fri 10:11:57 PM 28.3333 -82.6000 230° Southwest 259 298 6,700 -1,150 Descending Tampa TRACON
Fri 10:12:57 PM 28.2667 -82.6333 204° Southwest 259 298 5,900 -1,304 Descending Tampa TRACON
Fri 10:14:15 PM 28.1833 -82.6667 199° South 254 292 3,700 -1,261 Descending Tampa TRACON
Fri 10:15:15 PM 28.1333 -82.7000 210° Southwest 236 272 3,000 -368 Descending Tampa TRACON
Fri 10:16:09 PM 28.0833 -82.7167 196° South 177 204 3,000 -474 Level Tampa TRACON
Fri 10:17:09 PM 28.0333 -82.7167 180° South 155 178 2,100 -762 Descending Tampa TRACON
Fri 10:18:15 PM 28.0000 -82.7000 156° South 126 145 1,400 -667 Descending Tampa TRACON
Fri 10:19:15 PM 27.9500 -82.7000 180° South 130 150 700 -700 Descending Tampa TRACON

Login

Don't have an account? Register now (free) for customized features, flight alerts, and more!